createdAt,value
2022-11-12T00:03:17.183Z,38.20
2022-11-12T00:08:17.084Z,38.20
2022-11-12T00:13:17.127Z,37.90
2022-11-12T00:18:17.105Z,37.90
2022-11-12T00:23:17.424Z,37.70
2022-11-12T00:28:17.077Z,37.70
2022-11-12T00:33:17.375Z,38.70
2022-11-12T00:38:17.086Z,38.70
2022-11-12T00:43:17.376Z,37.30
2022-11-12T00:48:17.268Z,37.30
2022-11-12T00:53:17.315Z,36.50
2022-11-12T00:58:17.161Z,36.50
2022-11-12T01:03:17.297Z,37.50
2022-11-12T01:08:17.441Z,37.50
2022-11-12T01:13:17.082Z,38.10
2022-11-12T01:18:17.427Z,38.10
2022-11-12T01:28:17.836Z,37.60
2022-11-12T01:33:17.215Z,38.40
2022-11-12T01:38:17.124Z,38.40
2022-11-12T01:43:17.190Z,38.30
2022-11-12T01:48:17.329Z,38.30
2022-11-12T01:53:17.477Z,38.70
2022-11-12T01:58:17.114Z,38.70
2022-11-12T02:03:17.152Z,38.50
2022-11-12T02:08:17.265Z,38.50
2022-11-12T02:13:17.399Z,38.70
2022-11-12T02:18:17.184Z,38.70
2022-11-12T02:23:17.170Z,36.90
2022-11-12T02:28:17.114Z,36.90
2022-11-12T02:33:17.154Z,38.60
2022-11-12T02:38:17.152Z,38.60
2022-11-12T02:43:17.157Z,38.50
2022-11-12T02:48:19.274Z,38.50
2022-11-12T02:53:17.287Z,37.60
2022-11-12T02:58:17.134Z,37.60
2022-11-12T03:03:17.227Z,36.00
2022-11-12T03:08:17.401Z,36.00
2022-11-12T03:13:17.137Z,36.50
2022-11-12T03:18:17.384Z,36.50
2022-11-12T03:23:17.511Z,37.50
2022-11-12T03:28:17.282Z,37.50
2022-11-12T03:33:17.484Z,37.30
2022-11-12T03:38:17.290Z,37.30
2022-11-12T03:43:17.425Z,36.00
2022-11-12T03:48:17.221Z,36.00
2022-11-12T03:53:17.420Z,36.60
2022-11-12T03:58:17.148Z,36.60
2022-11-12T04:03:17.546Z,37.80
2022-11-12T04:08:17.524Z,37.80
2022-11-12T04:13:17.160Z,37.00
2022-11-12T04:18:17.498Z,37.00
2022-11-12T04:23:17.227Z,35.00
2022-11-12T04:28:17.542Z,35.00
2022-11-12T04:33:17.289Z,36.90
2022-11-12T04:43:17.269Z,36.20
2022-11-12T04:48:19.194Z,36.20
2022-11-12T04:53:17.279Z,36.20
2022-11-12T04:58:17.385Z,36.20
2022-11-12T05:03:17.515Z,38.60
2022-11-12T05:08:17.346Z,38.60
2022-11-12T05:13:17.219Z,38.60
2022-11-12T05:18:17.232Z,38.60
2022-11-12T05:23:17.211Z,38.00
2022-11-12T05:28:17.222Z,38.00
2022-11-12T05:33:17.233Z,37.00
2022-11-12T05:38:17.527Z,37.00
2022-11-12T05:43:17.310Z,35.50
2022-11-12T05:48:22.966Z,35.50
2022-11-12T05:53:17.575Z,38.10
2022-11-12T05:58:17.236Z,38.10
2022-11-12T06:03:17.338Z,34.00
2022-11-12T06:08:17.370Z,34.00
2022-11-12T06:13:17.306Z,35.90
2022-11-12T06:18:17.704Z,35.90
2022-11-12T06:23:17.257Z,40.50
2022-11-12T06:28:17.463Z,40.50
2022-11-12T06:33:17.554Z,37.70
2022-11-12T06:38:17.391Z,37.70
2022-11-12T06:43:17.600Z,38.40
2022-11-12T06:48:17.271Z,38.40
2022-11-12T06:53:17.500Z,39.30
2022-11-12T06:58:17.321Z,39.30
2022-11-12T07:03:17.467Z,38.30
2022-11-12T07:08:17.244Z,38.30
2022-11-12T07:13:17.284Z,38.40
2022-11-12T07:18:17.578Z,38.40
2022-11-12T07:23:17.242Z,38.50
2022-11-12T07:28:17.267Z,38.50
2022-11-12T07:33:17.238Z,39.70
2022-11-12T07:38:17.290Z,39.70
2022-11-12T07:43:17.358Z,40.20
2022-11-12T07:48:17.487Z,40.20
2022-11-12T07:53:17.312Z,40.60
2022-11-12T08:03:17.573Z,39.70
2022-11-12T08:08:17.395Z,39.70
2022-11-12T08:13:17.569Z,41.00
2022-11-12T08:18:17.375Z,41.00
2022-11-12T08:23:17.300Z,40.00
2022-11-12T08:28:17.376Z,40.00
2022-11-12T08:33:17.519Z,39.90
2022-11-12T08:38:17.297Z,39.90
2022-11-12T08:43:17.471Z,39.80
2022-11-12T08:48:17.309Z,39.80
2022-11-12T08:53:17.445Z,40.00
2022-11-12T08:58:17.402Z,40.00
2022-11-12T09:03:17.404Z,41.40
2022-11-12T09:08:17.380Z,41.40
2022-11-12T09:13:17.438Z,41.70
2022-11-12T09:18:17.527Z,41.70
2022-11-12T09:23:17.337Z,40.40
2022-11-12T09:28:17.501Z,40.40
2022-11-12T09:33:17.434Z,41.10
2022-11-12T09:38:17.472Z,41.10
2022-11-12T09:43:17.614Z,40.60
2022-11-12T09:48:17.394Z,40.60
2022-11-12T09:53:17.575Z,41.20
2022-11-12T09:58:17.314Z,41.20
2022-11-12T10:03:17.350Z,42.00
2022-11-12T10:08:17.396Z,42.00
2022-11-12T10:13:17.345Z,41.70
2022-11-12T10:18:17.533Z,41.70
2022-11-12T10:23:17.342Z,41.30
2022-11-12T10:28:17.628Z,41.30
2022-11-12T10:33:17.405Z,41.40
2022-11-12T10:38:17.602Z,41.40
2022-11-12T10:43:17.533Z,40.60
2022-11-12T10:48:17.824Z,40.60
2022-11-12T10:53:17.355Z,44.30
2022-11-12T10:58:17.447Z,44.30
2022-11-12T11:03:17.678Z,40.50
2022-11-12T11:08:17.369Z,40.50
2022-11-12T11:13:17.647Z,43.70
2022-11-12T11:18:17.428Z,43.70
2022-11-12T11:23:17.598Z,42.70
2022-11-12T11:28:17.529Z,42.70
2022-11-12T11:33:17.339Z,42.30
2022-11-12T11:38:17.420Z,42.30
2022-11-12T11:43:17.562Z,41.70
2022-11-12T11:48:17.782Z,41.70
2022-11-12T11:53:17.481Z,42.40
2022-11-12T11:58:17.414Z,42.40
2022-11-12T12:03:17.596Z,41.80
2022-11-12T12:08:17.383Z,41.80
2022-11-12T12:18:17.607Z,42.10
2022-11-12T12:23:17.357Z,41.10
2022-11-12T12:28:17.579Z,41.10
2022-11-12T12:38:17.549Z,42.10
2022-11-12T12:43:17.760Z,40.60
2022-11-12T12:48:17.372Z,40.60
2022-11-12T12:53:17.433Z,41.30
2022-11-12T12:58:17.392Z,41.30
2022-11-12T13:03:17.425Z,42.00
2022-11-12T13:08:17.406Z,42.00
2022-11-12T13:13:17.600Z,41.00
2022-11-12T13:18:17.740Z,41.00
2022-11-12T13:23:17.785Z,42.00
2022-11-12T13:28:17.715Z,42.00
2022-11-12T13:33:17.438Z,42.60
2022-11-12T13:38:17.681Z,42.60
2022-11-12T13:43:17.514Z,41.40
2022-11-12T13:48:17.786Z,41.40
2022-11-12T13:53:17.438Z,41.20
2022-11-12T13:58:17.456Z,41.20
2022-11-12T14:03:17.736Z,41.20
2022-11-12T14:08:17.569Z,41.20
2022-11-12T14:13:17.728Z,41.30
2022-11-12T14:18:17.505Z,41.30
2022-11-12T14:23:23.181Z,42.30
2022-11-12T14:28:17.524Z,42.30
2022-11-12T14:33:17.673Z,42.10
2022-11-12T14:38:17.459Z,42.10
2022-11-12T14:43:19.145Z,42.50
2022-11-12T14:53:22.023Z,40.80
2022-11-12T14:58:17.753Z,40.80
2022-11-12T15:03:17.535Z,41.50
2022-11-12T15:08:17.475Z,41.50
2022-11-12T15:18:18.062Z,40.70
2022-11-12T15:23:17.544Z,41.00
2022-11-12T15:28:17.664Z,41.00
2022-11-12T15:33:17.493Z,41.50
2022-11-12T15:38:17.492Z,41.50
2022-11-12T15:43:17.467Z,41.30
2022-11-12T15:48:17.499Z,41.30
2022-11-12T15:53:17.756Z,41.30
2022-11-12T15:58:17.471Z,41.30
2022-11-12T16:03:17.713Z,41.60
2022-11-12T16:08:17.497Z,41.60
2022-11-12T16:13:17.682Z,42.10
2022-11-12T16:18:17.531Z,42.10
2022-11-12T16:23:17.678Z,41.20
2022-11-12T16:28:17.792Z,41.20
2022-11-12T16:33:17.615Z,41.20
2022-11-12T16:43:17.853Z,40.20
2022-11-12T16:48:17.532Z,40.20
2022-11-12T16:53:17.702Z,42.20
2022-11-12T16:58:17.504Z,42.20
2022-11-12T17:03:17.838Z,41.20
2022-11-12T17:08:17.657Z,41.20
2022-11-12T17:13:17.973Z,40.70
2022-11-12T17:18:17.902Z,40.70
2022-11-12T17:23:17.778Z,42.00
2022-11-12T17:28:17.753Z,42.00
2022-11-12T17:33:17.728Z,41.50
2022-11-12T17:38:17.530Z,41.50
2022-11-12T17:43:17.805Z,41.50
2022-11-12T17:48:17.635Z,41.50
2022-11-12T17:53:17.821Z,42.60
2022-11-12T17:58:17.885Z,42.60
2022-11-12T18:03:17.726Z,41.70
2022-11-12T18:08:17.553Z,41.70
2022-11-12T18:13:17.650Z,42.70
2022-11-12T18:18:17.603Z,42.70
2022-11-12T18:23:17.642Z,42.10
2022-11-12T18:28:17.659Z,42.10
2022-11-12T18:33:17.754Z,42.00
2022-11-12T18:38:18.197Z,42.00
2022-11-12T18:43:18.610Z,41.80
2022-11-12T18:48:17.579Z,41.80
2022-11-12T18:53:18.049Z,42.00
2022-11-12T18:58:17.702Z,42.00
2022-11-12T19:03:17.995Z,40.70
2022-11-12T19:08:17.728Z,40.70
2022-11-12T19:13:17.759Z,41.10
2022-11-12T19:18:18.136Z,41.10
2022-11-12T19:23:18.354Z,41.80
2022-11-12T19:28:18.033Z,41.80
2022-11-12T19:33:17.926Z,42.30
2022-11-12T19:38:18.249Z,42.30
2022-11-12T19:43:17.805Z,40.90
2022-11-12T19:53:17.657Z,42.20
2022-11-12T19:58:17.781Z,42.20
2022-11-12T20:03:17.630Z,41.20
2022-11-12T20:08:17.787Z,41.20
2022-11-12T20:13:17.663Z,39.80
2022-11-12T20:18:17.809Z,39.80
2022-11-12T20:23:17.605Z,40.00
2022-11-12T20:28:17.779Z,40.00
2022-11-12T20:33:17.824Z,40.90
2022-11-12T20:38:17.818Z,40.90
2022-11-12T20:43:17.644Z,40.70
2022-11-12T20:48:17.671Z,40.70
2022-11-12T20:53:17.644Z,41.70
2022-11-12T20:58:18.143Z,41.70
2022-11-12T21:03:17.717Z,40.40
2022-11-12T21:08:17.621Z,40.40
2022-11-12T21:18:17.855Z,41.40
2022-11-12T21:23:17.681Z,41.90
2022-11-12T21:28:17.622Z,41.90
2022-11-12T21:33:18.065Z,41.70
2022-11-12T21:38:17.808Z,41.70
2022-11-12T21:43:18.004Z,40.10
2022-11-12T21:48:17.728Z,40.10
2022-11-12T21:53:17.699Z,41.60
2022-11-12T21:58:17.642Z,41.60
2022-11-12T22:03:17.872Z,41.00
2022-11-12T22:08:17.638Z,41.00
2022-11-12T22:13:26.776Z,40.10
2022-11-12T22:18:17.974Z,40.10
2022-11-12T22:23:17.761Z,40.80
2022-11-12T22:28:17.920Z,40.80
2022-11-12T22:33:17.785Z,41.20
2022-11-12T22:38:17.905Z,41.20
2022-11-12T22:43:17.727Z,41.30
2022-11-12T22:48:17.895Z,41.30
2022-11-12T22:53:17.642Z,40.90
2022-11-12T22:58:17.675Z,40.90
2022-11-12T23:03:17.688Z,39.30
2022-11-12T23:08:17.677Z,39.30
2022-11-12T23:13:17.658Z,40.00
2022-11-12T23:18:17.810Z,40.00
2022-11-12T23:23:17.646Z,39.10
2022-11-12T23:28:17.842Z,39.10
2022-11-12T23:33:17.713Z,41.10
2022-11-12T23:38:17.692Z,41.10
2022-11-12T23:43:17.886Z,39.00
2022-11-12T23:48:18.019Z,39.00
2022-11-12T23:53:17.834Z,39.70
2022-11-12T23:58:17.690Z,39.70
